sensor_id;sensor_type;location;lat;lon;timestamp;P1;durP1;ratioP1;P2;durP2;ratioP2
42364;SDS011;28498;54.400;18.566;2023-05-03T00:01:41;17.85;;;9.80;;
42364;SDS011;28498;54.400;18.566;2023-05-03T00:04:09;20.52;;;10.90;;
42364;SDS011;28498;54.400;18.566;2023-05-03T00:06:36;20.08;;;11.07;;
42364;SDS011;28498;54.400;18.566;2023-05-03T00:09:03;20.65;;;11.90;;
42364;SDS011;28498;54.400;18.566;2023-05-03T00:11:30;19.85;;;11.70;;
42364;SDS011;28498;54.400;18.566;2023-05-03T00:13:58;21.35;;;12.32;;
42364;SDS011;28498;54.400;18.566;2023-05-03T00:16:26;19.67;;;11.27;;
42364;SDS011;28498;54.400;18.566;2023-05-03T00:18:53;20.25;;;11.82;;
42364;SDS011;28498;54.400;18.566;2023-05-03T00:21:20;18.88;;;10.25;;
42364;SDS011;28498;54.400;18.566;2023-05-03T00:23:47;19.00;;;11.02;;
42364;SDS011;28498;54.400;18.566;2023-05-03T00:26:14;20.40;;;10.00;;
42364;SDS011;28498;54.400;18.566;2023-05-03T00:28:41;16.92;;;10.07;;
42364;SDS011;28498;54.400;18.566;2023-05-03T00:31:08;17.58;;;10.25;;
42364;SDS011;28498;54.400;18.566;2023-05-03T00:33:36;18.52;;;9.82;;
42364;SDS011;28498;54.400;18.566;2023-05-03T00:36:11;17.35;;;9.93;;
42364;SDS011;28498;54.400;18.566;2023-05-03T00:38:39;18.98;;;9.75;;
42364;SDS011;28498;54.400;18.566;2023-05-03T00:41:10;16.20;;;9.43;;
42364;SDS011;28498;54.400;18.566;2023-05-03T00:43:38;20.13;;;10.55;;
42364;SDS011;28498;54.400;18.566;2023-05-03T00:46:05;19.73;;;10.48;;
42364;SDS011;28498;54.400;18.566;2023-05-03T00:48:42;19.15;;;9.77;;
42364;SDS011;28498;54.400;18.566;2023-05-03T00:51:15;16.03;;;9.67;;
42364;SDS011;28498;54.400;18.566;2023-05-03T00:53:44;19.15;;;10.27;;
42364;SDS011;28498;54.400;18.566;2023-05-03T00:56:11;18.17;;;10.15;;
42364;SDS011;28498;54.400;18.566;2023-05-03T00:58:42;19.25;;;10.88;;
42364;SDS011;28498;54.400;18.566;2023-05-03T01:01:09;20.45;;;10.63;;
42364;SDS011;28498;54.400;18.566;2023-05-03T01:03:37;16.85;;;9.55;;
42364;SDS011;28498;54.400;18.566;2023-05-03T01:06:12;25.50;;;11.75;;
42364;SDS011;28498;54.400;18.566;2023-05-03T01:08:57;19.67;;;10.10;;
42364;SDS011;28498;54.400;18.566;2023-05-03T01:16:50;24.67;;;11.25;;
42364;SDS011;28498;54.400;18.566;2023-05-03T01:19:27;19.45;;;9.77;;
42364;SDS011;28498;54.400;18.566;2023-05-03T01:22:02;21.00;;;9.88;;
42364;SDS011;28498;54.400;18.566;2023-05-03T01:27:25;24.13;;;8.63;;
42364;SDS011;28498;54.400;18.566;2023-05-03T01:29:52;17.70;;;7.78;;
42364;SDS011;28498;54.400;18.566;2023-05-03T01:32:20;16.42;;;9.32;;
42364;SDS011;28498;54.400;18.566;2023-05-03T01:34:59;16.00;;;8.20;;
42364;SDS011;28498;54.400;18.566;2023-05-03T01:37:55;14.00;;;7.68;;
42364;SDS011;28498;54.400;18.566;2023-05-03T01:40:24;19.10;;;8.60;;
42364;SDS011;28498;54.400;18.566;2023-05-03T01:42:54;18.48;;;8.70;;
42364;SDS011;28498;54.400;18.566;2023-05-03T01:45:22;15.77;;;7.13;;
42364;SDS011;28498;54.400;18.566;2023-05-03T01:47:49;19.60;;;7.78;;
42364;SDS011;28498;54.400;18.566;2023-05-03T01:50:16;15.20;;;7.57;;
42364;SDS011;28498;54.400;18.566;2023-05-03T01:52:43;15.82;;;7.40;;
42364;SDS011;28498;54.400;18.566;2023-05-03T01:55:10;12.13;;;7.95;;
42364;SDS011;28498;54.400;18.566;2023-05-03T01:57:37;15.25;;;7.68;;
42364;SDS011;28498;54.400;18.566;2023-05-03T02:00:04;14.95;;;6.88;;
42364;SDS011;28498;54.400;18.566;2023-05-03T02:02:32;16.08;;;7.43;;
42364;SDS011;28498;54.400;18.566;2023-05-03T02:04:59;14.43;;;7.00;;
42364;SDS011;28498;54.400;18.566;2023-05-03T02:07:26;19.95;;;7.28;;
42364;SDS011;28498;54.400;18.566;2023-05-03T02:09:53;11.32;;;7.00;;
42364;SDS011;28498;54.400;18.566;2023-05-03T02:12:20;16.58;;;7.18;;
42364;SDS011;28498;54.400;18.566;2023-05-03T02:14:47;14.23;;;7.68;;
42364;SDS011;28498;54.400;18.566;2023-05-03T02:17:14;13.85;;;7.30;;
42364;SDS011;28498;54.400;18.566;2023-05-03T02:19:42;13.05;;;6.40;;
42364;SDS011;28498;54.400;18.566;2023-05-03T02:22:09;13.48;;;6.25;;
42364;SDS011;28498;54.400;18.566;2023-05-03T02:24:36;15.02;;;6.70;;
42364;SDS011;28498;54.400;18.566;2023-05-03T02:27:05;14.25;;;7.05;;
42364;SDS011;28498;54.400;18.566;2023-05-03T02:29:32;16.00;;;6.72;;
42364;SDS011;28498;54.400;18.566;2023-05-03T02:31:59;13.68;;;7.50;;
42364;SDS011;28498;54.400;18.566;2023-05-03T02:34:26;13.32;;;6.28;;
42364;SDS011;28498;54.400;18.566;2023-05-03T02:36:53;17.58;;;7.18;;
42364;SDS011;28498;54.400;18.566;2023-05-03T02:39:21;12.15;;;5.90;;
42364;SDS011;28498;54.400;18.566;2023-05-03T02:41:48;16.38;;;6.93;;
42364;SDS011;28498;54.400;18.566;2023-05-03T02:44:15;12.25;;;6.45;;
42364;SDS011;28498;54.400;18.566;2023-05-03T02:46:42;11.88;;;6.18;;
42364;SDS011;28498;54.400;18.566;2023-05-03T02:49:09;14.77;;;6.20;;
42364;SDS011;28498;54.400;18.566;2023-05-03T02:51:36;13.60;;;6.75;;
42364;SDS011;28498;54.400;18.566;2023-05-03T02:54:04;14.23;;;6.43;;
42364;SDS011;28498;54.400;18.566;2023-05-03T02:56:31;13.88;;;6.15;;
42364;SDS011;28498;54.400;18.566;2023-05-03T02:58:58;10.68;;;5.95;;
42364;SDS011;28498;54.400;18.566;2023-05-03T03:01:25;17.17;;;6.25;;
42364;SDS011;28498;54.400;18.566;2023-05-03T03:03:53;13.90;;;6.15;;
42364;SDS011;28498;54.400;18.566;2023-05-03T03:06:38;16.80;;;7.32;;
42364;SDS011;28498;54.400;18.566;2023-05-03T03:09:05;13.90;;;6.22;;
42364;SDS011;28498;54.400;18.566;2023-05-03T03:11:33;12.68;;;6.60;;
42364;SDS011;28498;54.400;18.566;2023-05-03T03:14:00;13.18;;;5.80;;
42364;SDS011;28498;54.400;18.566;2023-05-03T03:16:27;12.25;;;6.53;;
42364;SDS011;28498;54.400;18.566;2023-05-03T03:18:54;18.40;;;6.47;;
42364;SDS011;28498;54.400;18.566;2023-05-03T03:21:21;16.50;;;6.20;;
42364;SDS011;28498;54.400;18.566;2023-05-03T03:23:47;12.45;;;6.07;;
42364;SDS011;28498;54.400;18.566;2023-05-03T03:26:15;10.35;;;5.30;;
42364;SDS011;28498;54.400;18.566;2023-05-03T03:28:41;14.13;;;6.03;;
42364;SDS011;28498;54.400;18.566;2023-05-03T03:31:08;11.25;;;5.68;;
42364;SDS011;28498;54.400;18.566;2023-05-03T03:33:36;11.20;;;5.45;;
42364;SDS011;28498;54.400;18.566;2023-05-03T03:36:03;11.98;;;5.97;;
42364;SDS011;28498;54.400;18.566;2023-05-03T03:38:33;15.63;;;6.85;;
42364;SDS011;28498;54.400;18.566;2023-05-03T03:41:00;10.95;;;4.82;;
42364;SDS011;28498;54.400;18.566;2023-05-03T03:43:27;13.77;;;5.60;;
42364;SDS011;28498;54.400;18.566;2023-05-03T03:45:54;10.90;;;5.68;;
42364;SDS011;28498;54.400;18.566;2023-05-03T03:48:21;9.73;;;5.18;;
42364;SDS011;28498;54.400;18.566;2023-05-03T03:50:48;12.13;;;5.05;;
42364;SDS011;28498;54.400;18.566;2023-05-03T03:53:15;11.55;;;5.40;;
42364;SDS011;28498;54.400;18.566;2023-05-03T03:55:42;13.25;;;5.65;;
42364;SDS011;28498;54.400;18.566;2023-05-03T03:58:09;9.38;;;4.78;;
42364;SDS011;28498;54.400;18.566;2023-05-03T04:00:36;10.40;;;4.10;;
42364;SDS011;28498;54.400;18.566;2023-05-03T04:03:04;7.32;;;4.25;;
42364;SDS011;28498;54.400;18.566;2023-05-03T04:05:33;12.23;;;4.20;;
42364;SDS011;28498;54.400;18.566;2023-05-03T04:08:00;8.73;;;4.78;;
42364;SDS011;28498;54.400;18.566;2023-05-03T04:10:27;8.75;;;4.20;;
42364;SDS011;28498;54.400;18.566;2023-05-03T04:12:54;7.95;;;4.00;;
42364;SDS011;28498;54.400;18.566;2023-05-03T04:15:21;8.27;;;4.07;;
42364;SDS011;28498;54.400;18.566;2023-05-03T04:17:48;10.70;;;4.78;;
42364;SDS011;28498;54.400;18.566;2023-05-03T04:20:15;8.07;;;5.03;;
42364;SDS011;28498;54.400;18.566;2023-05-03T04:22:42;9.05;;;4.22;;
42364;SDS011;28498;54.400;18.566;2023-05-03T04:25:10;7.82;;;4.15;;
42364;SDS011;28498;54.400;18.566;2023-05-03T04:27:39;11.05;;;4.22;;
42364;SDS011;28498;54.400;18.566;2023-05-03T04:30:06;9.40;;;5.05;;
42364;SDS011;28498;54.400;18.566;2023-05-03T04:32:34;11.07;;;5.47;;
42364;SDS011;28498;54.400;18.566;2023-05-03T04:35:06;14.68;;;5.03;;
42364;SDS011;28498;54.400;18.566;2023-05-03T04:37:38;12.07;;;4.88;;
42364;SDS011;28498;54.400;18.566;2023-05-03T04:40:06;10.75;;;4.13;;
42364;SDS011;28498;54.400;18.566;2023-05-03T04:42:35;8.80;;;4.43;;
42364;SDS011;28498;54.400;18.566;2023-05-03T04:45:02;12.10;;;4.10;;
42364;SDS011;28498;54.400;18.566;2023-05-03T04:47:32;16.95;;;5.75;;
42364;SDS011;28498;54.400;18.566;2023-05-03T04:49:59;10.50;;;3.97;;
42364;SDS011;28498;54.400;18.566;2023-05-03T04:52:27;10.27;;;4.78;;
42364;SDS011;28498;54.400;18.566;2023-05-03T04:54:54;11.98;;;4.97;;
42364;SDS011;28498;54.400;18.566;2023-05-03T04:57:22;9.23;;;4.40;;
42364;SDS011;28498;54.400;18.566;2023-05-03T04:59:48;9.75;;;4.63;;
42364;SDS011;28498;54.400;18.566;2023-05-03T05:02:16;8.68;;;3.85;;
42364;SDS011;28498;54.400;18.566;2023-05-03T05:04:43;7.18;;;3.42;;
42364;SDS011;28498;54.400;18.566;2023-05-03T05:07:10;7.90;;;3.47;;
42364;SDS011;28498;54.400;18.566;2023-05-03T05:09:38;6.65;;;3.97;;
42364;SDS011;28498;54.400;18.566;2023-05-03T05:12:06;5.70;;;3.20;;
42364;SDS011;28498;54.400;18.566;2023-05-03T05:14:33;6.72;;;3.60;;
42364;SDS011;28498;54.400;18.566;2023-05-03T05:17:00;9.35;;;3.47;;
42364;SDS011;28498;54.400;18.566;2023-05-03T05:19:27;9.10;;;3.42;;
42364;SDS011;28498;54.400;18.566;2023-05-03T05:21:54;7.80;;;3.60;;
42364;SDS011;28498;54.400;18.566;2023-05-03T05:24:21;6.28;;;3.28;;
42364;SDS011;28498;54.400;18.566;2023-05-03T05:26:48;6.55;;;3.30;;
42364;SDS011;28498;54.400;18.566;2023-05-03T05:29:15;7.93;;;3.30;;
42364;SDS011;28498;54.400;18.566;2023-05-03T05:31:42;8.48;;;2.90;;
42364;SDS011;28498;54.400;18.566;2023-05-03T05:34:09;6.63;;;3.55;;
42364;SDS011;28498;54.400;18.566;2023-05-03T05:36:36;6.63;;;3.63;;
42364;SDS011;28498;54.400;18.566;2023-05-03T05:39:03;6.88;;;2.72;;
42364;SDS011;28498;54.400;18.566;2023-05-03T05:41:30;4.88;;;2.97;;
42364;SDS011;28498;54.400;18.566;2023-05-03T05:43:57;9.70;;;3.95;;
42364;SDS011;28498;54.400;18.566;2023-05-03T05:46:25;5.85;;;2.78;;
42364;SDS011;28498;54.400;18.566;2023-05-03T05:48:52;7.85;;;2.88;;
42364;SDS011;28498;54.400;18.566;2023-05-03T05:51:19;6.20;;;3.08;;
42364;SDS011;28498;54.400;18.566;2023-05-03T05:53:46;9.60;;;2.75;;
42364;SDS011;28498;54.400;18.566;2023-05-03T05:56:13;7.30;;;2.70;;
42364;SDS011;28498;54.400;18.566;2023-05-03T05:58:41;5.75;;;2.63;;
42364;SDS011;28498;54.400;18.566;2023-05-03T06:01:08;9.52;;;3.47;;
42364;SDS011;28498;54.400;18.566;2023-05-03T06:03:35;4.65;;;2.38;;
42364;SDS011;28498;54.400;18.566;2023-05-03T06:06:02;8.00;;;3.05;;
42364;SDS011;28498;54.400;18.566;2023-05-03T06:08:29;5.47;;;2.75;;
42364;SDS011;28498;54.400;18.566;2023-05-03T06:10:57;5.38;;;2.63;;
42364;SDS011;28498;54.400;18.566;2023-05-03T06:13:23;5.05;;;2.30;;
42364;SDS011;28498;54.400;18.566;2023-05-03T06:15:51;4.13;;;2.30;;
42364;SDS011;28498;54.400;18.566;2023-05-03T06:18:19;7.35;;;3.00;;
42364;SDS011;28498;54.400;18.566;2023-05-03T06:20:49;4.85;;;2.50;;
42364;SDS011;28498;54.400;18.566;2023-05-03T06:23:16;5.97;;;2.28;;
42364;SDS011;28498;54.400;18.566;2023-05-03T06:25:45;6.80;;;2.30;;
42364;SDS011;28498;54.400;18.566;2023-05-03T06:28:13;3.75;;;2.38;;
42364;SDS011;28498;54.400;18.566;2023-05-03T06:30:40;5.13;;;2.30;;
42364;SDS011;28498;54.400;18.566;2023-05-03T06:33:09;4.93;;;2.40;;
42364;SDS011;28498;54.400;18.566;2023-05-03T06:35:37;5.28;;;2.22;;
42364;SDS011;28498;54.400;18.566;2023-05-03T06:38:04;6.93;;;3.00;;
42364;SDS011;28498;54.400;18.566;2023-05-03T06:40:31;5.28;;;2.20;;
42364;SDS011;28498;54.400;18.566;2023-05-03T06:43:00;5.18;;;2.63;;
42364;SDS011;28498;54.400;18.566;2023-05-03T06:45:27;3.78;;;2.08;;
42364;SDS011;28498;54.400;18.566;2023-05-03T06:47:54;7.00;;;2.65;;
42364;SDS011;28498;54.400;18.566;2023-05-03T06:50:21;4.93;;;2.00;;
42364;SDS011;28498;54.400;18.566;2023-05-03T06:52:49;4.25;;;2.40;;
42364;SDS011;28498;54.400;18.566;2023-05-03T06:55:16;4.57;;;2.00;;
42364;SDS011;28498;54.400;18.566;2023-05-03T06:57:44;7.30;;;2.03;;
42364;SDS011;28498;54.400;18.566;2023-05-03T07:00:13;3.97;;;2.20;;
42364;SDS011;28498;54.400;18.566;2023-05-03T07:02:41;5.13;;;2.45;;
42364;SDS011;28498;54.400;18.566;2023-05-03T07:05:08;3.50;;;1.50;;
42364;SDS011;28498;54.400;18.566;2023-05-03T07:07:35;4.05;;;1.50;;
42364;SDS011;28498;54.400;18.566;2023-05-03T07:10:02;3.78;;;2.00;;
42364;SDS011;28498;54.400;18.566;2023-05-03T07:12:30;6.57;;;1.63;;
42364;SDS011;28498;54.400;18.566;2023-05-03T07:14:57;3.00;;;1.73;;
42364;SDS011;28498;54.400;18.566;2023-05-03T07:17:24;4.30;;;1.67;;
42364;SDS011;28498;54.400;18.566;2023-05-03T07:19:51;4.97;;;1.80;;
42364;SDS011;28498;54.400;18.566;2023-05-03T07:22:18;3.00;;;1.30;;
42364;SDS011;28498;54.400;18.566;2023-05-03T07:24:52;3.75;;;1.50;;
42364;SDS011;28498;54.400;18.566;2023-05-03T07:27:25;5.60;;;1.33;;
42364;SDS011;28498;54.400;18.566;2023-05-03T07:29:52;6.15;;;1.45;;
42364;SDS011;28498;54.400;18.566;2023-05-03T07:32:20;5.20;;;1.48;;
42364;SDS011;28498;54.400;18.566;2023-05-03T07:38:35;2.45;;;1.13;;
42364;SDS011;28498;54.400;18.566;2023-05-03T07:41:02;3.05;;;1.40;;
42364;SDS011;28498;54.400;18.566;2023-05-03T07:43:29;3.03;;;1.20;;
42364;SDS011;28498;54.400;18.566;2023-05-03T07:45:56;2.53;;;1.00;;
42364;SDS011;28498;54.400;18.566;2023-05-03T07:48:23;4.18;;;1.10;;
42364;SDS011;28498;54.400;18.566;2023-05-03T07:50:50;2.63;;;1.20;;
42364;SDS011;28498;54.400;18.566;2023-05-03T07:53:17;4.30;;;1.70;;
42364;SDS011;28498;54.400;18.566;2023-05-03T07:59:32;3.90;;;1.20;;
42364;SDS011;28498;54.400;18.566;2023-05-03T08:01:59;3.70;;;1.05;;
42364;SDS011;28498;54.400;18.566;2023-05-03T08:04:27;3.38;;;1.20;;
42364;SDS011;28498;54.400;18.566;2023-05-03T08:06:54;3.10;;;1.30;;
42364;SDS011;28498;54.400;18.566;2023-05-03T08:09:21;2.47;;;1.10;;
42364;SDS011;28498;54.400;18.566;2023-05-03T08:11:48;2.53;;;1.17;;
42364;SDS011;28498;54.400;18.566;2023-05-03T08:14:15;3.25;;;1.30;;
42364;SDS011;28498;54.400;18.566;2023-05-03T08:16:42;3.38;;;1.30;;
42364;SDS011;28498;54.400;18.566;2023-05-03T08:19:09;4.07;;;1.25;;
42364;SDS011;28498;54.400;18.566;2023-05-03T08:21:36;4.78;;;2.03;;
42364;SDS011;28498;54.400;18.566;2023-05-03T08:24:03;5.13;;;1.73;;
42364;SDS011;28498;54.400;18.566;2023-05-03T08:26:34;3.22;;;1.48;;
42364;SDS011;28498;54.400;18.566;2023-05-03T08:29:01;2.60;;;1.20;;
42364;SDS011;28498;54.400;18.566;2023-05-03T08:31:28;4.07;;;1.00;;
42364;SDS011;28498;54.400;18.566;2023-05-03T08:33:56;3.22;;;1.65;;
42364;SDS011;28498;54.400;18.566;2023-05-03T08:40:04;2.58;;;1.38;;
42364;SDS011;28498;54.400;18.566;2023-05-03T08:42:33;3.35;;;1.20;;
42364;SDS011;28498;54.400;18.566;2023-05-03T08:45:00;3.58;;;1.08;;
42364;SDS011;28498;54.400;18.566;2023-05-03T08:47:28;4.65;;;1.27;;
42364;SDS011;28498;54.400;18.566;2023-05-03T08:49:58;3.45;;;1.50;;
42364;SDS011;28498;54.400;18.566;2023-05-03T08:52:26;2.67;;;1.30;;
42364;SDS011;28498;54.400;18.566;2023-05-03T08:58:43;2.83;;;1.10;;
42364;SDS011;28498;54.400;18.566;2023-05-03T09:05:01;3.13;;;1.10;;
42364;SDS011;28498;54.400;18.566;2023-05-03T09:07:29;2.78;;;1.17;;
42364;SDS011;28498;54.400;18.566;2023-05-03T09:09:56;2.72;;;1.10;;
42364;SDS011;28498;54.400;18.566;2023-05-03T09:12:36;4.57;;;1.23;;
42364;SDS011;28498;54.400;18.566;2023-05-03T09:15:06;3.53;;;1.00;;
42364;SDS011;28498;54.400;18.566;2023-05-03T09:17:34;2.60;;;1.00;;
42364;SDS011;28498;54.400;18.566;2023-05-03T09:20:01;2.85;;;0.93;;
42364;SDS011;28498;54.400;18.566;2023-05-03T09:22:30;2.65;;;1.33;;
42364;SDS011;28498;54.400;18.566;2023-05-03T09:24:59;3.22;;;1.00;;
42364;SDS011;28498;54.400;18.566;2023-05-03T09:27:26;2.15;;;0.85;;
42364;SDS011;28498;54.400;18.566;2023-05-03T09:29:54;3.05;;;0.90;;
42364;SDS011;28498;54.400;18.566;2023-05-03T09:32:21;2.13;;;1.08;;
42364;SDS011;28498;54.400;18.566;2023-05-03T09:34:49;2.95;;;0.85;;
42364;SDS011;28498;54.400;18.566;2023-05-03T09:37:16;1.67;;;0.77;;
42364;SDS011;28498;54.400;18.566;2023-05-03T09:39:53;2.63;;;0.85;;
42364;SDS011;28498;54.400;18.566;2023-05-03T09:42:33;4.38;;;1.10;;
42364;SDS011;28498;54.400;18.566;2023-05-03T09:45:00;2.22;;;0.80;;
42364;SDS011;28498;54.400;18.566;2023-05-03T09:51:14;3.20;;;0.90;;
42364;SDS011;28498;54.400;18.566;2023-05-03T09:53:41;2.47;;;0.82;;
42364;SDS011;28498;54.400;18.566;2023-05-03T09:56:09;2.55;;;0.82;;
42364;SDS011;28498;54.400;18.566;2023-05-03T09:58:40;2.55;;;0.90;;
42364;SDS011;28498;54.400;18.566;2023-05-03T10:01:09;2.08;;;0.75;;
42364;SDS011;28498;54.400;18.566;2023-05-03T10:03:40;2.38;;;0.60;;
42364;SDS011;28498;54.400;18.566;2023-05-03T10:09:04;3.03;;;0.85;;
42364;SDS011;28498;54.400;18.566;2023-05-03T10:11:52;2.60;;;0.68;;
42364;SDS011;28498;54.400;18.566;2023-05-03T10:14:20;4.68;;;0.73;;
42364;SDS011;28498;54.400;18.566;2023-05-03T10:16:48;1.65;;;0.70;;
42364;SDS011;28498;54.400;18.566;2023-05-03T10:19:20;4.03;;;1.00;;
42364;SDS011;28498;54.400;18.566;2023-05-03T10:22:03;5.70;;;2.10;;
42364;SDS011;28498;54.400;18.566;2023-05-03T10:24:31;3.67;;;1.90;;
42364;SDS011;28498;54.400;18.566;2023-05-03T10:27:06;2.47;;;1.10;;
42364;SDS011;28498;54.400;18.566;2023-05-03T10:35:14;2.70;;;1.63;;
42364;SDS011;28498;54.400;18.566;2023-05-03T10:37:44;3.95;;;1.45;;
42364;SDS011;28498;54.400;18.566;2023-05-03T10:40:14;4.55;;;2.00;;
42364;SDS011;28498;54.400;18.566;2023-05-03T10:42:43;4.70;;;1.33;;
42364;SDS011;28498;54.400;18.566;2023-05-03T10:45:19;4.38;;;1.58;;
42364;SDS011;28498;54.400;18.566;2023-05-03T10:50:41;2.95;;;1.25;;
42364;SDS011;28498;54.400;18.566;2023-05-03T10:53:09;4.72;;;1.30;;
42364;SDS011;28498;54.400;18.566;2023-05-03T10:55:59;8.63;;;2.38;;
42364;SDS011;28498;54.400;18.566;2023-05-03T10:58:37;4.20;;;1.50;;
42364;SDS011;28498;54.400;18.566;2023-05-03T11:01:09;5.22;;;1.55;;
42364;SDS011;28498;54.400;18.566;2023-05-03T11:10:18;3.35;;;1.25;;
42364;SDS011;28498;54.400;18.566;2023-05-03T11:12:46;3.95;;;1.30;;
42364;SDS011;28498;54.400;18.566;2023-05-03T11:15:14;4.05;;;1.60;;
42364;SDS011;28498;54.400;18.566;2023-05-03T11:17:40;4.53;;;1.63;;
42364;SDS011;28498;54.400;18.566;2023-05-03T11:20:08;5.63;;;1.92;;
42364;SDS011;28498;54.400;18.566;2023-05-03T11:22:36;5.90;;;1.80;;
42364;SDS011;28498;54.400;18.566;2023-05-03T11:25:03;4.93;;;1.60;;
42364;SDS011;28498;54.400;18.566;2023-05-03T11:27:31;5.15;;;2.20;;
42364;SDS011;28498;54.400;18.566;2023-05-03T11:29:58;3.10;;;1.50;;
42364;SDS011;28498;54.400;18.566;2023-05-03T11:32:28;4.30;;;1.52;;
42364;SDS011;28498;54.400;18.566;2023-05-03T11:34:55;4.72;;;1.80;;
42364;SDS011;28498;54.400;18.566;2023-05-03T11:37:25;4.32;;;1.73;;
42364;SDS011;28498;54.400;18.566;2023-05-03T11:39:52;5.22;;;1.77;;
42364;SDS011;28498;54.400;18.566;2023-05-03T11:42:19;6.13;;;1.80;;
42364;SDS011;28498;54.400;18.566;2023-05-03T11:44:46;4.30;;;1.80;;
42364;SDS011;28498;54.400;18.566;2023-05-03T11:47:13;4.30;;;2.22;;
42364;SDS011;28498;54.400;18.566;2023-05-03T11:49:49;4.40;;;2.15;;
42364;SDS011;28498;54.400;18.566;2023-05-03T11:52:26;5.38;;;3.20;;
42364;SDS011;28498;54.400;18.566;2023-05-03T11:54:53;4.90;;;1.67;;
42364;SDS011;28498;54.400;18.566;2023-05-03T11:57:21;6.80;;;2.45;;
42364;SDS011;28498;54.400;18.566;2023-05-03T11:59:50;4.78;;;2.55;;
42364;SDS011;28498;54.400;18.566;2023-05-03T12:02:17;4.57;;;1.98;;
42364;SDS011;28498;54.400;18.566;2023-05-03T12:04:44;5.43;;;2.00;;
42364;SDS011;28498;54.400;18.566;2023-05-03T12:07:13;5.93;;;2.58;;
42364;SDS011;28498;54.400;18.566;2023-05-03T12:09:44;4.03;;;1.63;;
42364;SDS011;28498;54.400;18.566;2023-05-03T12:12:21;4.65;;;1.70;;
42364;SDS011;28498;54.400;18.566;2023-05-03T12:14:58;6.15;;;2.42;;
42364;SDS011;28498;54.400;18.566;2023-05-03T12:17:33;6.07;;;1.80;;
42364;SDS011;28498;54.400;18.566;2023-05-03T12:20:13;6.22;;;1.90;;
42364;SDS011;28498;54.400;18.566;2023-05-03T12:22:52;6.35;;;1.92;;
42364;SDS011;28498;54.400;18.566;2023-05-03T12:25:23;9.55;;;1.98;;
42364;SDS011;28498;54.400;18.566;2023-05-03T12:27:57;3.90;;;1.45;;
42364;SDS011;28498;54.400;18.566;2023-05-03T12:30:29;6.65;;;2.33;;
42364;SDS011;28498;54.400;18.566;2023-05-03T12:32:59;4.75;;;2.05;;
42364;SDS011;28498;54.400;18.566;2023-05-03T12:35:30;4.65;;;2.03;;
42364;SDS011;28498;54.400;18.566;2023-05-03T12:37:59;5.57;;;1.90;;
42364;SDS011;28498;54.400;18.566;2023-05-03T12:40:28;6.20;;;2.10;;
42364;SDS011;28498;54.400;18.566;2023-05-03T12:43:00;8.15;;;2.28;;
42364;SDS011;28498;54.400;18.566;2023-05-03T12:45:27;5.72;;;2.45;;
42364;SDS011;28498;54.400;18.566;2023-05-03T12:47:59;7.68;;;2.33;;
42364;SDS011;28498;54.400;18.566;2023-05-03T12:50:28;7.85;;;2.20;;
42364;SDS011;28498;54.400;18.566;2023-05-03T12:52:57;4.55;;;2.00;;
42364;SDS011;28498;54.400;18.566;2023-05-03T12:55:28;6.95;;;2.85;;
42364;SDS011;28498;54.400;18.566;2023-05-03T12:58:02;7.55;;;2.58;;
42364;SDS011;28498;54.400;18.566;2023-05-03T13:00:50;5.57;;;2.20;;
42364;SDS011;28498;54.400;18.566;2023-05-03T13:03:37;5.82;;;1.98;;
42364;SDS011;28498;54.400;18.566;2023-05-03T13:06:09;6.18;;;2.53;;
42364;SDS011;28498;54.400;18.566;2023-05-03T13:08:39;6.32;;;2.13;;
42364;SDS011;28498;54.400;18.566;2023-05-03T13:11:16;5.72;;;2.25;;
42364;SDS011;28498;54.400;18.566;2023-05-03T13:13:45;7.63;;;2.22;;
42364;SDS011;28498;54.400;18.566;2023-05-03T13:16:12;8.63;;;3.28;;
42364;SDS011;28498;54.400;18.566;2023-05-03T13:18:39;7.88;;;2.13;;
42364;SDS011;28498;54.400;18.566;2023-05-03T13:21:08;5.65;;;2.47;;
42364;SDS011;28498;54.400;18.566;2023-05-03T13:23:36;7.93;;;2.40;;
42364;SDS011;28498;54.400;18.566;2023-05-03T13:26:03;7.43;;;2.75;;
42364;SDS011;28498;54.400;18.566;2023-05-03T13:28:32;7.80;;;2.20;;
42364;SDS011;28498;54.400;18.566;2023-05-03T13:30:59;8.07;;;2.70;;
42364;SDS011;28498;54.400;18.566;2023-05-03T13:33:26;10.65;;;2.55;;
42364;SDS011;28498;54.400;18.566;2023-05-03T13:35:54;5.30;;;2.00;;
42364;SDS011;28498;54.400;18.566;2023-05-03T13:38:21;7.20;;;2.40;;
42364;SDS011;28498;54.400;18.566;2023-05-03T13:40:48;7.90;;;2.92;;
42364;SDS011;28498;54.400;18.566;2023-05-03T13:43:15;5.32;;;2.80;;
42364;SDS011;28498;54.400;18.566;2023-05-03T13:45:42;6.45;;;2.20;;
42364;SDS011;28498;54.400;18.566;2023-05-03T13:48:09;8.55;;;1.98;;
42364;SDS011;28498;54.400;18.566;2023-05-03T13:50:44;6.47;;;2.10;;
42364;SDS011;28498;54.400;18.566;2023-05-03T13:53:11;7.78;;;2.20;;
42364;SDS011;28498;54.400;18.566;2023-05-03T13:55:38;7.60;;;3.08;;
42364;SDS011;28498;54.400;18.566;2023-05-03T13:58:05;9.18;;;2.17;;
42364;SDS011;28498;54.400;18.566;2023-05-03T14:00:32;6.85;;;2.08;;
42364;SDS011;28498;54.400;18.566;2023-05-03T14:02:59;5.75;;;2.60;;
42364;SDS011;28498;54.400;18.566;2023-05-03T14:05:26;7.00;;;2.25;;
42364;SDS011;28498;54.400;18.566;2023-05-03T14:07:53;7.32;;;2.40;;
42364;SDS011;28498;54.400;18.566;2023-05-03T14:10:20;7.20;;;2.28;;
42364;SDS011;28498;54.400;18.566;2023-05-03T14:12:48;5.07;;;2.00;;
42364;SDS011;28498;54.400;18.566;2023-05-03T14:15:15;9.20;;;2.20;;
42364;SDS011;28498;54.400;18.566;2023-05-03T14:17:45;5.88;;;2.17;;
42364;SDS011;28498;54.400;18.566;2023-05-03T14:20:12;9.70;;;3.88;;
42364;SDS011;28498;54.400;18.566;2023-05-03T14:22:43;11.90;;;5.47;;
42364;SDS011;28498;54.400;18.566;2023-05-03T14:25:10;10.57;;;2.53;;
42364;SDS011;28498;54.400;18.566;2023-05-03T14:27:38;7.45;;;2.50;;
42364;SDS011;28498;54.400;18.566;2023-05-03T14:30:05;7.22;;;2.30;;
42364;SDS011;28498;54.400;18.566;2023-05-03T14:32:33;6.72;;;2.08;;
42364;SDS011;28498;54.400;18.566;2023-05-03T14:35:00;9.40;;;3.53;;
42364;SDS011;28498;54.400;18.566;2023-05-03T14:37:27;5.20;;;2.28;;
42364;SDS011;28498;54.400;18.566;2023-05-03T14:39:55;9.32;;;3.08;;
42364;SDS011;28498;54.400;18.566;2023-05-03T14:42:23;5.72;;;1.90;;
42364;SDS011;28498;54.400;18.566;2023-05-03T14:44:50;7.30;;;2.22;;
42364;SDS011;28498;54.400;18.566;2023-05-03T14:47:16;9.70;;;2.22;;
42364;SDS011;28498;54.400;18.566;2023-05-03T14:49:44;6.93;;;2.10;;
42364;SDS011;28498;54.400;18.566;2023-05-03T14:52:12;5.63;;;2.03;;
42364;SDS011;28498;54.400;18.566;2023-05-03T14:54:39;7.43;;;1.73;;
42364;SDS011;28498;54.400;18.566;2023-05-03T14:57:06;8.05;;;2.60;;
42364;SDS011;28498;54.400;18.566;2023-05-03T14:59:33;7.80;;;2.75;;
42364;SDS011;28498;54.400;18.566;2023-05-03T15:02:00;9.27;;;2.40;;
42364;SDS011;28498;54.400;18.566;2023-05-03T15:04:27;7.18;;;1.90;;
42364;SDS011;28498;54.400;18.566;2023-05-03T15:06:58;7.55;;;2.10;;
42364;SDS011;28498;54.400;18.566;2023-05-03T15:09:31;7.20;;;2.28;;
42364;SDS011;28498;54.400;18.566;2023-05-03T15:11:59;4.93;;;1.85;;
42364;SDS011;28498;54.400;18.566;2023-05-03T15:14:29;5.35;;;2.28;;
42364;SDS011;28498;54.400;18.566;2023-05-03T15:16:56;7.15;;;1.73;;
42364;SDS011;28498;54.400;18.566;2023-05-03T15:19:24;5.75;;;2.10;;
42364;SDS011;28498;54.400;18.566;2023-05-03T15:21:52;6.07;;;2.53;;
42364;SDS011;28498;54.400;18.566;2023-05-03T15:24:19;6.95;;;2.10;;
42364;SDS011;28498;54.400;18.566;2023-05-03T15:26:47;7.65;;;2.55;;
42364;SDS011;28498;54.400;18.566;2023-05-03T15:29:14;4.93;;;1.80;;